Zeland M. Deloach Jr. — WDD9083 — position and weather

sailwx.info

Track history (hours):
 
Tides and Currents Weather Stations Pressure Air Temp Water Temp Dewpoint Dewpoint Depression Visibility Wind Speed Wind Dir Waves Ship Positions

Zeland M. Deloach Jr.

Owner: Ingram Barge Company LLC, Nashville, TN. More information available from US FCC via Universal Licensing System and Coast Guard Vessel Documentation Center.

Last reported at 2017-Nov-18 12:06 UTC. Time now 2017-Nov-23 00:26 UTC.
Position N 29°50' W 091°58'.

Length 25 m; draft 3 m.

Type: Towing. MMSI: 367306570.

Date/timePositionNaut miles runAvg speedWind from/ knotsBaromVisibWave heightAir tempDewpointWater temp
2017-Nov-18 12:06N 29°50' W 091°58'0 3.1
2017-Nov-18 11:59N 29°50' W 091°58'2 3.3
2017-Nov-18 11:30N 29°50' W 091°60'2 3.4
2017-Nov-18 11:01N 29°49' W 092°02'2 4.0
2017-Nov-18 10:31N 29°49' W 092°04'2 4.1
2017-Nov-18 10:01N 29°48' W 092°06'2 4.2
2017-Nov-18 09:31N 29°47' W 092°08'2 3.8
2017-Nov-18 09:01N 29°47' W 092°10'2 3.9
2017-Nov-18 08:31N 29°47' W 092°12'0 0.8
2017-Nov-18 08:01N 29°47' W 092°13'0 0.9
2017-Nov-18 07:30N 29°47' W 092°13'1 2.1
2017-Nov-18 07:00N 29°48' W 092°14'0 0.3
2017-Nov-18 06:31N 29°48' W 092°14'1 2.5
2017-Nov-18 06:00N 29°48' W 092°16'2 3.3
2017-Nov-18 05:30N 29°49' W 092°17'1 2.6
2017-Nov-18 05:00N 29°50' W 092°18'1 2.6
2017-Nov-18 04:30N 29°51' W 092°20'2 3.1
2017-Nov-18 04:00N 29°51' W 092°22'2 3.2
2017-Nov-18 03:30N 29°52' W 092°23'35 3.5
2017-Nov-17 17:24N 29°56' W 093°03'2 3.5
2017-Nov-17 16:56N 29°56' W 093°05'1 3.4
2017-Nov-17 16:30N 29°56' W 093°06'2 3.4
2017-Nov-17 16:00N 29°56' W 093°08'2 3.3
2017-Nov-17 15:30N 29°57' W 093°10'2 3.5
2017-Nov-17 15:00N 29°58' W 093°11'2 3.5
2017-Nov-17 14:30N 29°59' W 093°13'2 3.5
2017-Nov-17 14:00N 30°01' W 093°14'2 3.1
2017-Nov-17 13:30N 30°02' W 093°15'1 2.8
2017-Nov-17 13:00N 30°03' W 093°16'2 3.6
2017-Nov-17 12:30N 30°05' W 093°17'1 2.4
2017-Nov-17 12:00N 30°05' W 093°18'1 1.0
2017-Nov-17 11:30N 30°06' W 093°18'0 0.3
2017-Nov-17 11:00N 30°06' W 093°18'0 0.0
2017-Nov-17 10:30N 30°06' W 093°18'0 0.0
2017-Nov-17 10:00N 30°06' W 093°18'0 0.0
2017-Nov-17 09:30N 30°06' W 093°18'0 0.0
2017-Nov-17 09:00N 30°06' W 093°18'0 0.0
2017-Nov-17 08:30N 30°06' W 093°18'0 0.0
2017-Nov-17 08:00N 30°06' W 093°18'0 0.0
2017-Nov-17 07:30N 30°06' W 093°18'0 0.0
2017-Nov-17 07:00N 30°06' W 093°18'0 0.5
2017-Nov-17 06:30N 30°06' W 093°18'2 3.4
2017-Nov-17 06:00N 30°05' W 093°20'2 3.0
2017-Nov-17 05:30N 30°04' W 093°21'1 2.9
2017-Nov-17 05:00N 30°04' W 093°23'1 1.5
2017-Nov-17 04:30N 30°04' W 093°24'0 0.3
2017-Nov-17 04:00N 30°04' W 093°24'1 2.0
2017-Nov-17 03:30N 30°04' W 093°25'1 2.8
2017-Nov-17 03:00N 30°04' W 093°27'1 2.7
2017-Nov-17 02:30N 30°04' W 093°28'1 2.9
2017-Nov-17 02:00N 30°04' W 093°30'2 3.1
2017-Nov-17 01:30N 30°04' W 093°32'2 3.2
2017-Nov-17 01:00N 30°04' W 093°33'2 3.4
2017-Nov-17 00:30N 30°04' W 093°35'2 3.6
2017-Nov-17 00:00N 30°04' W 093°38'2 3.8
2017-Nov-16 23:29N 30°04' W 093°40'1 2.8
2017-Nov-16 23:00N 30°03' W 093°41'70 2.3
2017-Nov-15 16:02N 29°30' W 094°52'0 6.3
2017-Nov-15 16:00N 29°30' W 094°52'3 6.1
2017-Nov-15 15:30N 29°33' W 094°54'3 5.6
2017-Nov-15 15:00N 29°35' W 094°56'3 5.3
2017-Nov-15 14:30N 29°37' W 094°58'3 5.9
2017-Nov-15 14:00N 29°40' W 094°59'3 5.5
2017-Nov-15 13:30N 29°42' W 095°01'2 3.7
2017-Nov-15 13:00N 29°44' W 095°02'3 3.7
2017-Nov-15 12:12N 29°46' W 095°05'0 2.3
2017-Nov-15 11:59N 29°46' W 095°05'0 0.5
2017-Nov-15 11:29N 29°46' W 095°05'0 0.0
2017-Nov-15 05:56N 29°46' W 095°05'0 0.0
2017-Nov-15 03:27N 29°46' W 095°05'0 0.1
2017-Nov-15 02:37N 29°46' W 095°05'0 2.7
2017-Nov-15 02:28N 29°47' W 095°04'0 0.1
2017-Nov-15 02:00N 29°47' W 095°05'0 0.0
2017-Nov-15 01:29N 29°47' W 095°05'1 0.2
2017-Nov-14 19:20N 29°46' W 095°06'3 5.4
2017-Nov-14 18:47N 29°44' W 095°08'2 6.1
2017-Nov-14 18:30N 29°45' W 095°10'0 0.3
2017-Nov-14 17:49N 29°45' W 095°10'0 1.1
2017-Nov-14 17:31N 29°45' W 095°10'1 2.2
2017-Nov-14 17:00N 29°44' W 095°09'3 5.3
2017-Nov-14 16:22N 29°46' W 095°05'2 1.1
2017-Nov-14 14:59N 29°47' W 095°04'1 1.6
2017-Nov-14 14:03N 29°46' W 095°06'0 5.2
2017-Nov-14 14:00N 29°46' W 095°05'1 0.5
2017-Nov-14 12:21N 29°46' W 095°05'2 4.8
2017-Nov-14 12:00N 29°44' W 095°04'2 4.4
2017-Nov-14 11:29N 29°43' W 095°01'1 2.9
2017-Nov-14 11:00N 29°42' W 095°00'3 5.3
2017-Nov-14 10:30N 29°40' W 094°58'3 5.7
2017-Nov-14 10:00N 29°37' W 094°58'3 5.8
2017-Nov-14 09:30N 29°35' W 094°56'3 6.1
2017-Nov-14 09:00N 29°32' W 094°54'0 0.0
2017-Nov-12 07:56N 29°32' W 094°54'2 4.9
2017-Nov-12 07:30N 29°34' W 094°55'3 5.1
2017-Nov-12 07:00N 29°36' W 094°57'2 4.3
2017-Nov-12 06:30N 29°38' W 094°58'3 5.1
2017-Nov-12 06:00N 29°40' W 094°59'2 4.8
2017-Nov-12 05:30N 29°42' W 095°00'2 4.5
2017-Nov-12 04:59N 29°44' W 095°02'2 5.1
2017-Nov-12 04:30N 29°45' W 095°04'1 1.4
2017-Nov-12 03:28N 29°47' W 095°05'0 0.0
2017-Nov-12 03:00N 29°47' W 095°05'0 0.0
2017-Nov-12 02:17N 29°47' W 095°05'0 0.0
2017-Nov-11 23:43N 29°47' W 095°05'0 0.2
2017-Nov-11 23:03N 29°47' W 095°04'1 5.7
2017-Nov-11 22:52N 29°46' W 095°05'1 1.4
2017-Nov-11 22:10N 29°46' W 095°06'1 3.5
2017-Nov-11 21:59N 29°46' W 095°05'4 7.6
2017-Nov-11 21:30N 29°44' W 095°09'2 2.9
2017-Nov-11 20:59N 29°45' W 095°11'1 1.3
2017-Nov-11 20:28N 29°45' W 095°10'2 5.1
2017-Nov-11 19:59N 29°44' W 095°07'3 5.8
2017-Nov-11 19:30N 29°46' W 095°05'1 1.0
2017-Nov-11 19:00N 29°47' W 095°05'0 0.0
2017-Nov-11 18:29N 29°47' W 095°05'1 0.4
2017-Nov-11 17:08N 29°46' W 095°05'1 3.2
2017-Nov-11 16:58N 29°46' W 095°04'2 5.0
2017-Nov-11 16:30N 29°44' W 095°02'2 4.3
2017-Nov-11 16:00N 29°42' W 095°01'2 4.9
2017-Nov-11 15:30N 29°41' W 094°59'2 3.5
2017-Nov-11 15:00N 29°39' W 094°58'2 3.2
2017-Nov-11 14:30N 29°38' W 094°58'2 4.6
2017-Nov-11 14:00N 29°35' W 094°56'3 6.8
2017-Nov-11 13:30N 29°33' W 094°54'1 0.0
2017-Nov-09 23:29N 29°33' W 094°55'3 7.3
2017-Nov-09 23:01N 29°36' W 094°57'4 7.4
2017-Nov-09 22:30N 29°39' W 094°58'3 6.6
2017-Nov-09 22:00N 29°42' W 095°01'3 5.9
2017-Nov-09 21:27N 29°44' W 095°03'3 3.5
2017-Nov-09 20:43N 29°47' W 095°05'0 0.1
2017-Nov-09 20:29N 29°47' W 095°05'0 0.0
2017-Nov-09 20:00N 29°47' W 095°05'0 0.0
2017-Nov-09 19:30N 29°47' W 095°05'4 1.1
2017-Nov-09 15:50N 29°44' W 095°08'2 3.0
2017-Nov-09 15:14N 29°45' W 095°10'2 5.6
2017-Nov-09 14:58N 29°44' W 095°09'4 3.4
2017-Nov-09 13:44N 29°47' W 095°05'0 0.1
2017-Nov-09 13:26N 29°47' W 095°05'0 0.0
2017-Nov-09 13:00N 29°47' W 095°05'0 0.0
2017-Nov-09 12:30N 29°47' W 095°05'0 0.0
2017-Nov-09 11:55N 29°47' W 095°05'0 0.0
2017-Nov-09 11:27N 29°47' W 095°05'0 0.0
2017-Nov-09 11:00N 29°47' W 095°05'0 0.0
2017-Nov-09 10:30N 29°47' W 095°05'0 0.0
2017-Nov-09 10:00N 29°47' W 095°05'0 0.0
2017-Nov-09 09:30N 29°47' W 095°05'0 0.0
2017-Nov-09 09:00N 29°47' W 095°05'0 0.0
2017-Nov-09 08:28N 29°47' W 095°05'0 0.0
2017-Nov-09 07:58N 29°47' W 095°05'0 0.1
2017-Nov-09 07:29N 29°47' W 095°05'0 0.1
2017-Nov-09 06:55N 29°47' W 095°05'0 0.1
2017-Nov-09 06:01N 29°47' W 095°05'0 0.4
2017-Nov-09 06:00N 29°47' W 095°05'1 0.9
2017-Nov-09 04:46N 29°47' W 095°06'1 2.4
2017-Nov-09 04:22N 29°46' W 095°05'1 2.6
2017-Nov-09 04:00N 29°47' W 095°05'0 0.0
2017-Nov-09 03:09N 29°47' W 095°05'0 0.0
2017-Nov-09 02:56N 29°47' W 095°05'0 0.1
2017-Nov-09 02:27N 29°47' W 095°05'1 0.8
2017-Nov-09 00:50N 29°46' W 095°06'1 0.2
2017-Nov-08 21:47N 29°46' W 095°05'  
Track history (hours):
 
Tides and Currents Weather Stations Pressure Air Temp Water Temp Dewpoint Dewpoint Depression Visibility Wind Speed Wind Dir Waves Ship Positions

Zeland M. Deloach Jr.

Owner: Ingram Barge Company LLC, Nashville, TN. More information available from US FCC via Universal Licensing System and Coast Guard Vessel Documentation Center.

Last reported at 2017-Nov-18 12:06 UTC. Time now 2017-Nov-23 00:26 UTC.
Position N 29°50' W 091°58'.

Length 25 m; draft 3 m.

Type: Towing. MMSI: 367306570.

Date/timePositionNaut miles runAvg speedWind from/ knotsBaromVisibWave heightAir tempDewpointWater temp
2017-Nov-18 12:06N 29°50' W 091°58'0 3.1
2017-Nov-18 11:59N 29°50' W 091°58'2 3.3
2017-Nov-18 11:30N 29°50' W 091°60'2 3.4
2017-Nov-18 11:01N 29°49' W 092°02'2 4.0
2017-Nov-18 10:31N 29°49' W 092°04'2 4.1
2017-Nov-18 10:01N 29°48' W 092°06'2 4.2
2017-Nov-18 09:31N 29°47' W 092°08'2 3.8
2017-Nov-18 09:01N 29°47' W 092°10'2 3.9
2017-Nov-18 08:31N 29°47' W 092°12'0 0.8
2017-Nov-18 08:01N 29°47' W 092°13'0 0.9
2017-Nov-18 07:30N 29°47' W 092°13'1 2.1
2017-Nov-18 07:00N 29°48' W 092°14'0 0.3
2017-Nov-18 06:31N 29°48' W 092°14'1 2.5
2017-Nov-18 06:00N 29°48' W 092°16'2 3.3
2017-Nov-18 05:30N 29°49' W 092°17'1 2.6
2017-Nov-18 05:00N 29°50' W 092°18'1 2.6
2017-Nov-18 04:30N 29°51' W 092°20'2 3.1
2017-Nov-18 04:00N 29°51' W 092°22'2 3.2
2017-Nov-18 03:30N 29°52' W 092°23'35 3.5
2017-Nov-17 17:24N 29°56' W 093°03'2 3.5
2017-Nov-17 16:56N 29°56' W 093°05'1 3.4
2017-Nov-17 16:30N 29°56' W 093°06'2 3.4
2017-Nov-17 16:00N 29°56' W 093°08'2 3.3
2017-Nov-17 15:30N 29°57' W 093°10'2 3.5
2017-Nov-17 15:00N 29°58' W 093°11'2 3.5
2017-Nov-17 14:30N 29°59' W 093°13'2 3.5
2017-Nov-17 14:00N 30°01' W 093°14'2 3.1
2017-Nov-17 13:30N 30°02' W 093°15'1 2.8
2017-Nov-17 13:00N 30°03' W 093°16'2 3.6
2017-Nov-17 12:30N 30°05' W 093°17'1 2.4
2017-Nov-17 12:00N 30°05' W 093°18'1 1.0
2017-Nov-17 11:30N 30°06' W 093°18'0 0.3
2017-Nov-17 11:00N 30°06' W 093°18'0 0.0
2017-Nov-17 10:30N 30°06' W 093°18'0 0.0
2017-Nov-17 10:00N 30°06' W 093°18'0 0.0
2017-Nov-17 09:30N 30°06' W 093°18'0 0.0
2017-Nov-17 09:00N 30°06' W 093°18'0 0.0
2017-Nov-17 08:30N 30°06' W 093°18'0 0.0
2017-Nov-17 08:00N 30°06' W 093°18'0 0.0
2017-Nov-17 07:30N 30°06' W 093°18'0 0.0
2017-Nov-17 07:00N 30°06' W 093°18'0 0.5
2017-Nov-17 06:30N 30°06' W 093°18'2 3.4
2017-Nov-17 06:00N 30°05' W 093°20'2 3.0
2017-Nov-17 05:30N 30°04' W 093°21'1 2.9
2017-Nov-17 05:00N 30°04' W 093°23'1 1.5
2017-Nov-17 04:30N 30°04' W 093°24'0 0.3
2017-Nov-17 04:00N 30°04' W 093°24'1 2.0
2017-Nov-17 03:30N 30°04' W 093°25'1 2.8
2017-Nov-17 03:00N 30°04' W 093°27'1 2.7
2017-Nov-17 02:30N 30°04' W 093°28'1 2.9
2017-Nov-17 02:00N 30°04' W 093°30'2 3.1
2017-Nov-17 01:30N 30°04' W 093°32'2 3.2
2017-Nov-17 01:00N 30°04' W 093°33'2 3.4
2017-Nov-17 00:30N 30°04' W 093°35'2 3.6
2017-Nov-17 00:00N 30°04' W 093°38'2 3.8
2017-Nov-16 23:29N 30°04' W 093°40'1 2.8
2017-Nov-16 23:00N 30°03' W 093°41'70 2.3
2017-Nov-15 16:02N 29°30' W 094°52'0 6.3
2017-Nov-15 16:00N 29°30' W 094°52'3 6.1
2017-Nov-15 15:30N 29°33' W 094°54'3 5.6
2017-Nov-15 15:00N 29°35' W 094°56'3 5.3
2017-Nov-15 14:30N 29°37' W 094°58'3 5.9
2017-Nov-15 14:00N 29°40' W 094°59'3 5.5
2017-Nov-15 13:30N 29°42' W 095°01'2 3.7
2017-Nov-15 13:00N 29°44' W 095°02'3 3.7
2017-Nov-15 12:12N 29°46' W 095°05'0 2.3
2017-Nov-15 11:59N 29°46' W 095°05'0 0.5
2017-Nov-15 11:29N 29°46' W 095°05'0 0.0
2017-Nov-15 05:56N 29°46' W 095°05'0 0.0
2017-Nov-15 03:27N 29°46' W 095°05'0 0.1
2017-Nov-15 02:37N 29°46' W 095°05'0 2.7
2017-Nov-15 02:28N 29°47' W 095°04'0 0.1
2017-Nov-15 02:00N 29°47' W 095°05'0 0.0
2017-Nov-15 01:29N 29°47' W 095°05'1 0.2
2017-Nov-14 19:20N 29°46' W 095°06'3 5.4
2017-Nov-14 18:47N 29°44' W 095°08'2 6.1
2017-Nov-14 18:30N 29°45' W 095°10'0 0.3
2017-Nov-14 17:49N 29°45' W 095°10'0 1.1
2017-Nov-14 17:31N 29°45' W 095°10'1 2.2
2017-Nov-14 17:00N 29°44' W 095°09'3 5.3
2017-Nov-14 16:22N 29°46' W 095°05'2 1.1
2017-Nov-14 14:59N 29°47' W 095°04'1 1.6
2017-Nov-14 14:03N 29°46' W 095°06'0 5.2
2017-Nov-14 14:00N 29°46' W 095°05'1 0.5
2017-Nov-14 12:21N 29°46' W 095°05'2 4.8
2017-Nov-14 12:00N 29°44' W 095°04'2 4.4
2017-Nov-14 11:29N 29°43' W 095°01'1 2.9
2017-Nov-14 11:00N 29°42' W 095°00'3 5.3
2017-Nov-14 10:30N 29°40' W 094°58'3 5.7
2017-Nov-14 10:00N 29°37' W 094°58'3 5.8
2017-Nov-14 09:30N 29°35' W 094°56'3 6.1
2017-Nov-14 09:00N 29°32' W 094°54'0 0.0
2017-Nov-12 07:56N 29°32' W 094°54'2 4.9
2017-Nov-12 07:30N 29°34' W 094°55'3 5.1
2017-Nov-12 07:00N 29°36' W 094°57'2 4.3
2017-Nov-12 06:30N 29°38' W 094°58'3 5.1
2017-Nov-12 06:00N 29°40' W 094°59'2 4.8
2017-Nov-12 05:30N 29°42' W 095°00'2 4.5
2017-Nov-12 04:59N 29°44' W 095°02'2 5.1
2017-Nov-12 04:30N 29°45' W 095°04'1 1.4
2017-Nov-12 03:28N 29°47' W 095°05'0 0.0
2017-Nov-12 03:00N 29°47' W 095°05'0 0.0
2017-Nov-12 02:17N 29°47' W 095°05'0 0.0
2017-Nov-11 23:43N 29°47' W 095°05'0 0.2
2017-Nov-11 23:03N 29°47' W 095°04'1 5.7
2017-Nov-11 22:52N 29°46' W 095°05'1 1.4
2017-Nov-11 22:10N 29°46' W 095°06'1 3.5
2017-Nov-11 21:59N 29°46' W 095°05'4 7.6
2017-Nov-11 21:30N 29°44' W 095°09'2 2.9
2017-Nov-11 20:59N 29°45' W 095°11'1 1.3
2017-Nov-11 20:28N 29°45' W 095°10'2 5.1
2017-Nov-11 19:59N 29°44' W 095°07'3 5.8
2017-Nov-11 19:30N 29°46' W 095°05'1 1.0
2017-Nov-11 19:00N 29°47' W 095°05'0 0.0
2017-Nov-11 18:29N 29°47' W 095°05'1 0.4
2017-Nov-11 17:08N 29°46' W 095°05'1 3.2
2017-Nov-11 16:58N 29°46' W 095°04'2 5.0
2017-Nov-11 16:30N 29°44' W 095°02'2 4.3
2017-Nov-11 16:00N 29°42' W 095°01'2 4.9
2017-Nov-11 15:30N 29°41' W 094°59'2 3.5
2017-Nov-11 15:00N 29°39' W 094°58'2 3.2
2017-Nov-11 14:30N 29°38' W 094°58'2 4.6
2017-Nov-11 14:00N 29°35' W 094°56'3 6.8
2017-Nov-11 13:30N 29°33' W 094°54'1 0.0
2017-Nov-09 23:29N 29°33' W 094°55'3 7.3
2017-Nov-09 23:01N 29°36' W 094°57'4 7.4
2017-Nov-09 22:30N 29°39' W 094°58'3 6.6
2017-Nov-09 22:00N 29°42' W 095°01'3 5.9
2017-Nov-09 21:27N 29°44' W 095°03'3 3.5
2017-Nov-09 20:43N 29°47' W 095°05'0 0.1
2017-Nov-09 20:29N 29°47' W 095°05'0 0.0
2017-Nov-09 20:00N 29°47' W 095°05'0 0.0
2017-Nov-09 19:30N 29°47' W 095°05'4 1.1
2017-Nov-09 15:50N 29°44' W 095°08'2 3.0
2017-Nov-09 15:14N 29°45' W 095°10'2 5.6
2017-Nov-09 14:58N 29°44' W 095°09'4 3.4
2017-Nov-09 13:44N 29°47' W 095°05'0 0.1
2017-Nov-09 13:26N 29°47' W 095°05'0 0.0
2017-Nov-09 13:00N 29°47' W 095°05'0 0.0
2017-Nov-09 12:30N 29°47' W 095°05'0 0.0
2017-Nov-09 11:55N 29°47' W 095°05'0 0.0
2017-Nov-09 11:27N 29°47' W 095°05'0 0.0
2017-Nov-09 11:00N 29°47' W 095°05'0 0.0
2017-Nov-09 10:30N 29°47' W 095°05'0 0.0
2017-Nov-09 10:00N 29°47' W 095°05'0 0.0
2017-Nov-09 09:30N 29°47' W 095°05'0 0.0
2017-Nov-09 09:00N 29°47' W 095°05'0 0.0
2017-Nov-09 08:28N 29°47' W 095°05'0 0.0
2017-Nov-09 07:58N 29°47' W 095°05'0 0.1
2017-Nov-09 07:29N 29°47' W 095°05'0 0.1
2017-Nov-09 06:55N 29°47' W 095°05'0 0.1
2017-Nov-09 06:01N 29°47' W 095°05'0 0.4
2017-Nov-09 06:00N 29°47' W 095°05'1 0.9
2017-Nov-09 04:46N 29°47' W 095°06'1 2.4
2017-Nov-09 04:22N 29°46' W 095°05'1 2.6
2017-Nov-09 04:00N 29°47' W 095°05'0 0.0
2017-Nov-09 03:09N 29°47' W 095°05'0 0.0
2017-Nov-09 02:56N 29°47' W 095°05'0 0.1
2017-Nov-09 02:27N 29°47' W 095°05'1 0.8
2017-Nov-09 00:50N 29°46' W 095°06'1 0.2
2017-Nov-08 21:47N 29°46' W 095°05'  

Dump ship's entire track history